Time;durP1;ratioP1;P1;durP2;ratioP2;P2;SDS_P1;SDS_P2;PMS_P1;PMS_P2;Temp;Humidity;BMP_temperature;BMP_pressure;BME280_temperature;BME280_humidity;BME280_pressure;Samples;Min_cycle;Max_cycle;Signal;HPM_P1;HPM_P2
2021/08/04 00:00:00;;;;;;;5.25;2.97;;;;;;;;;;5025507;28;20042;-70
2021/08/04 00:02:26;;;;;;;5.75;3.33;;;;;;;;;;5025290;28;20454;-70
2021/08/04 00:04:53;;;;;;;12.70;3.92;;;;;;;;;;5025271;28;20492;-70
2021/08/04 00:07:19;;;;;;;6.63;3.60;;;;;;;;;;5018973;28;20057;-70
2021/08/04 00:09:45;;;;;;;7.43;4.13;;;;;;;;;;5023013;28;20056;-71
2021/08/04 00:12:12;;;;;;;5.68;3.42;;;;;;;;;;5024203;28;20486;-70
2021/08/04 00:14:38;;;;;;;6.65;3.45;;;;;;;;;;5024289;28;20053;-70
2021/08/04 00:17:04;;;;;;;6.82;3.45;;;;;;;;;;5027344;28;20084;-71
2021/08/04 00:19:30;;;;;;;5.15;3.28;;;;;;;;;;5024816;28;20396;-70
2021/08/04 00:21:57;;;;;;;7.25;3.33;;;;;;;;;;5026026;28;20033;-70
2021/08/04 00:24:23;;;;;;;6.47;3.53;;;;;;;;;;5022924;28;20038;-70
2021/08/04 00:26:50;;;;;;;8.32;3.30;;;;;;;;;;5023396;28;20090;-71
2021/08/04 00:29:16;;;;;;;4.70;3.08;;;;;;;;;;5013436;28;20053;-70
2021/08/04 00:31:43;;;;;;;6.03;3.83;;;;;;;;;;5023740;28;20156;-70
2021/08/04 00:34:09;;;;;;;5.40;3.20;;;;;;;;;;5020985;28;20127;-70
2021/08/04 00:36:35;;;;;;;5.35;3.35;;;;;;;;;;5014748;28;20084;-71
2021/08/04 00:39:01;;;;;;;8.48;3.25;;;;;;;;;;5023020;28;20049;-70
2021/08/04 00:41:28;;;;;;;6.15;3.00;;;;;;;;;;5014440;28;20477;-71
2021/08/04 00:43:54;;;;;;;7.85;3.35;;;;;;;;;;5022091;28;20068;-70
2021/08/04 00:46:21;;;;;;;4.60;3.40;;;;;;;;;;5026645;28;20158;-70
2021/08/04 00:48:49;;;;;;;6.03;3.78;;;;;;;;;;5026023;28;20053;-70
2021/08/04 00:51:15;;;;;;;5.90;3.67;;;;;;;;;;5026803;28;20400;-70
2021/08/04 00:53:41;;;;;;;10.90;4.10;;;;;;;;;;5021649;28;20092;-70
2021/08/04 00:56:08;;;;;;;5.05;3.75;;;;;;;;;;5027864;28;20045;-70
2021/08/04 00:58:36;;;;;;;6.40;4.10;;;;;;;;;;5023598;28;21237;-70
2021/08/04 01:01:02;;;;;;;5.65;3.80;;;;;;;;;;5027909;28;21744;-70
2021/08/04 01:03:30;;;;;;;10.32;3.58;;;;;;;;;;5018501;28;20045;-70
2021/08/04 01:05:57;;;;;;;6.40;3.50;;;;;;;;;;5025403;28;20065;-70
2021/08/04 01:08:25;;;;;;;9.57;3.70;;;;;;;;;;5025332;28;20067;-70
2021/08/04 01:10:53;;;;;;;4.78;3.50;;;;;;;;;;5022803;28;20534;-70
2021/08/04 01:13:22;;;;;;;7.95;4.05;;;;;;;;;;5027034;28;20084;-70
2021/08/04 01:16:07;;;;;;;5.50;3.95;;;;;;;;;;5024258;28;20183;-70
2021/08/04 01:18:38;;;;;;;5.75;3.55;;;;;;;;;;5020738;28;20041;-71
2021/08/04 01:21:07;;;;;;;4.75;3.20;;;;;;;;;;5024959;28;20327;-70
2021/08/04 01:23:48;;;;;;;7.35;3.55;;;;;;;;;;5026518;28;20057;-70
2021/08/04 01:26:17;;;;;;;6.07;3.40;;;;;;;;;;5021009;28;20120;-70
2021/08/04 01:28:45;;;;;;;6.28;4.15;;;;;;;;;;5022381;28;20113;-70
2021/08/04 01:31:14;;;;;;;6.57;3.70;;;;;;;;;;5025587;28;20053;-70
2021/08/04 01:33:43;;;;;;;5.53;3.95;;;;;;;;;;5020460;28;20046;-70
2021/08/04 01:36:09;;;;;;;5.60;4.10;;;;;;;;;;5022331;28;20049;-70
2021/08/04 01:38:37;;;;;;;5.68;3.60;;;;;;;;;;5018713;28;20102;-70
2021/08/04 01:41:04;;;;;;;6.93;4.38;;;;;;;;;;5022200;28;20052;-71
2021/08/04 01:43:31;;;;;;;7.47;4.00;;;;;;;;;;5024852;28;20045;-70
2021/08/04 01:45:58;;;;;;;6.35;4.60;;;;;;;;;;5024277;28;20049;-70
2021/08/04 01:48:26;;;;;;;7.55;4.10;;;;;;;;;;5024934;28;20064;-70
2021/08/04 01:50:53;;;;;;;5.78;4.30;;;;;;;;;;5025311;28;20560;-71
2021/08/04 01:53:21;;;;;;;7.85;4.10;;;;;;;;;;5023643;28;20125;-70
2021/08/04 01:55:47;;;;;;;7.57;4.25;;;;;;;;;;5018064;28;20055;-70
2021/08/04 01:58:14;;;;;;;6.63;4.30;;;;;;;;;;5022394;28;20156;-70
2021/08/04 02:00:40;;;;;;;6.43;4.75;;;;;;;;;;5020988;28;20462;-71
2021/08/04 02:03:06;;;;;;;7.20;4.18;;;;;;;;;;5030356;28;20112;-70
2021/08/04 02:05:33;;;;;;;6.55;4.05;;;;;;;;;;5023519;28;20093;-71
2021/08/04 02:07:59;;;;;;;5.65;4.15;;;;;;;;;;5021387;28;20104;-70
2021/08/04 02:10:36;;;;;;;6.95;4.65;;;;;;;;;;5026712;28;20049;-70
2021/08/04 02:13:11;;;;;;;7.22;4.30;;;;;;;;;;5022887;28;20045;-70
2021/08/04 02:15:40;;;;;;;8.88;5.07;;;;;;;;;;5020299;28;20480;-70
2021/08/04 02:18:08;;;;;;;7.25;4.35;;;;;;;;;;5021882;28;20374;-70
2021/08/04 02:20:37;;;;;;;6.82;4.63;;;;;;;;;;5025065;28;20041;-70
2021/08/04 02:23:13;;;;;;;12.10;4.75;;;;;;;;;;5020417;28;20362;-70
2021/08/04 02:25:47;;;;;;;8.18;5.50;;;;;;;;;;5019238;28;20476;-70
2021/08/04 02:28:18;;;;;;;5.88;4.43;;;;;;;;;;5020619;28;20049;-71
2021/08/04 02:30:45;;;;;;;7.25;4.57;;;;;;;;;;5013954;28;20170;-70
2021/08/04 02:33:11;;;;;;;8.05;4.78;;;;;;;;;;5019062;28;20049;-70
2021/08/04 02:35:37;;;;;;;8.23;5.15;;;;;;;;;;5011015;28;20132;-70
2021/08/04 02:38:03;;;;;;;9.00;5.03;;;;;;;;;;5011313;28;20581;-70
2021/08/04 02:40:29;;;;;;;6.15;4.68;;;;;;;;;;5014891;28;20052;-71
2021/08/04 02:42:56;;;;;;;7.70;4.63;;;;;;;;;;5025166;28;20493;-70
2021/08/04 02:45:22;;;;;;;7.45;5.03;;;;;;;;;;5023017;28;20069;-70
2021/08/04 02:47:49;;;;;;;10.35;5.15;;;;;;;;;;5025632;28;20099;-70
2021/08/04 02:50:17;;;;;;;6.53;5.18;;;;;;;;;;5019456;28;20444;-70
2021/08/04 02:52:43;;;;;;;7.28;5.00;;;;;;;;;;5027014;28;20552;-70
2021/08/04 02:55:10;;;;;;;6.97;4.80;;;;;;;;;;5026159;28;20401;-71
2021/08/04 02:57:36;;;;;;;7.40;5.32;;;;;;;;;;5022227;28;20096;-70
2021/08/04 03:00:03;;;;;;;9.77;4.47;;;;;;;;;;5027705;28;20111;-70
2021/08/04 03:02:29;;;;;;;7.75;5.32;;;;;;;;;;5026362;28;20041;-70
2021/08/04 03:04:55;;;;;;;10.13;4.47;;;;;;;;;;5025987;28;20115;-71
2021/08/04 03:07:22;;;;;;;6.40;4.60;;;;;;;;;;5023521;28;20071;-71
2021/08/04 03:09:48;;;;;;;7.03;4.75;;;;;;;;;;5027143;28;20065;-71
2021/08/04 03:12:14;;;;;;;6.40;4.57;;;;;;;;;;5027992;28;20124;-70
2021/08/04 03:14:40;;;;;;;6.88;4.25;;;;;;;;;;5026593;28;20153;-70
2021/08/04 03:17:07;;;;;;;8.60;4.72;;;;;;;;;;5026719;28;20052;-70
2021/08/04 03:19:33;;;;;;;8.15;4.63;;;;;;;;;;5027445;28;20119;-70
2021/08/04 03:21:59;;;;;;;8.77;4.88;;;;;;;;;;5027233;28;20041;-70
2021/08/04 03:24:25;;;;;;;7.07;5.05;;;;;;;;;;5027630;28;20477;-70
2021/08/04 03:26:52;;;;;;;8.85;5.50;;;;;;;;;;5026920;28;20421;-70
2021/08/04 03:29:19;;;;;;;7.82;4.68;;;;;;;;;;5025698;28;20132;-70
2021/08/04 03:31:45;;;;;;;7.05;5.38;;;;;;;;;;5022424;28;20137;-70
2021/08/04 03:34:11;;;;;;;7.72;4.47;;;;;;;;;;5026551;28;21828;-70
2021/08/04 03:36:37;;;;;;;8.52;4.50;;;;;;;;;;5026144;28;20488;-70
2021/08/04 03:39:04;;;;;;;9.35;4.70;;;;;;;;;;5026654;28;20140;-70
2021/08/04 03:41:30;;;;;;;6.72;5.18;;;;;;;;;;5028567;28;20091;-70
2021/08/04 03:43:56;;;;;;;6.70;4.70;;;;;;;;;;5027066;28;20038;-70
2021/08/04 03:46:22;;;;;;;7.65;4.57;;;;;;;;;;5025036;28;20043;-70
2021/08/04 03:48:49;;;;;;;7.03;5.38;;;;;;;;;;5025874;28;20120;-71
2021/08/04 03:51:15;;;;;;;7.88;4.47;;;;;;;;;;5027921;28;20049;-71
2021/08/04 03:53:42;;;;;;;9.10;3.97;;;;;;;;;;5024537;28;20041;-70
2021/08/04 03:56:08;;;;;;;7.65;4.25;;;;;;;;;;5025918;28;20041;-70
2021/08/04 03:58:34;;;;;;;8.13;4.15;;;;;;;;;;5023009;28;20098;-71
2021/08/04 04:01:00;;;;;;;6.53;3.70;;;;;;;;;;5024610;28;20049;-70
2021/08/04 04:03:27;;;;;;;7.78;4.45;;;;;;;;;;5024460;28;20465;-70
2021/08/04 04:05:53;;;;;;;7.55;4.38;;;;;;;;;;5023642;28;20091;-71
2021/08/04 04:08:19;;;;;;;6.88;3.97;;;;;;;;;;5024477;28;20145;-70
2021/08/04 04:10:45;;;;;;;4.95;3.63;;;;;;;;;;5024784;28;20053;-70
2021/08/04 04:13:11;;;;;;;8.60;3.63;;;;;;;;;;5028350;28;20545;-70
2021/08/04 04:15:38;;;;;;;6.55;3.70;;;;;;;;;;5026150;28;20192;-70
2021/08/04 04:18:04;;;;;;;5.45;3.72;;;;;;;;;;5028891;28;20397;-70
2021/08/04 04:20:30;;;;;;;6.10;3.25;;;;;;;;;;5015964;28;20064;-70
2021/08/04 04:22:56;;;;;;;5.13;3.03;;;;;;;;;;5023534;28;20049;-70
2021/08/04 04:25:23;;;;;;;5.00;3.10;;;;;;;;;;5020656;28;20132;-70
2021/08/04 04:27:49;;;;;;;4.30;3.03;;;;;;;;;;5017699;28;20129;-70
2021/08/04 04:30:15;;;;;;;6.13;3.70;;;;;;;;;;5011888;28;20510;-70
2021/08/04 04:32:42;;;;;;;7.97;3.47;;;;;;;;;;5020387;28;20099;-70
2021/08/04 04:35:09;;;;;;;9.80;4.13;;;;;;;;;;5014208;28;21965;-70
2021/08/04 04:37:35;;;;;;;5.40;3.35;;;;;;;;;;5008031;28;20125;-70
2021/08/04 04:40:02;;;;;;;8.07;3.78;;;;;;;;;;5020073;28;20040;-71
2021/08/04 04:42:28;;;;;;;6.63;3.70;;;;;;;;;;5021366;28;20413;-71
2021/08/04 04:44:54;;;;;;;5.78;3.08;;;;;;;;;;5023185;28;20042;-70
2021/08/04 04:47:21;;;;;;;6.80;3.08;;;;;;;;;;5028971;28;20547;-70
2021/08/04 04:49:47;;;;;;;6.75;3.72;;;;;;;;;;5026127;28;20231;-70
2021/08/04 04:52:14;;;;;;;6.70;4.20;;;;;;;;;;5028028;28;20072;-70
2021/08/04 04:54:40;;;;;;;9.05;3.20;;;;;;;;;;5021159;28;20065;-71
2021/08/04 04:57:06;;;;;;;8.10;4.38;;;;;;;;;;5022641;28;20041;-70
2021/08/04 04:59:33;;;;;;;4.97;3.42;;;;;;;;;;5023632;28;20056;-70
2021/08/04 05:01:59;;;;;;;8.35;3.20;;;;;;;;;;5023595;28;20092;-70
2021/08/04 05:04:25;;;;;;;4.72;3.03;;;;;;;;;;5018910;28;20406;-70
2021/08/04 05:06:51;;;;;;;4.63;3.03;;;;;;;;;;5024505;28;20385;-70
2021/08/04 05:09:17;;;;;;;5.25;3.53;;;;;;;;;;5023973;28;20123;-70
2021/08/04 05:11:44;;;;;;;4.30;2.78;;;;;;;;;;5026053;28;20147;-70
2021/08/04 05:14:10;;;;;;;4.63;3.13;;;;;;;;;;5022649;28;20054;-70
2021/08/04 05:16:36;;;;;;;5.30;3.22;;;;;;;;;;5026348;28;20225;-70
2021/08/04 05:19:03;;;;;;;4.68;2.70;;;;;;;;;;5018110;28;20200;-69
2021/08/04 05:21:31;;;;;;;5.38;3.08;;;;;;;;;;5029527;28;20045;-70
2021/08/04 05:23:57;;;;;;;6.10;3.30;;;;;;;;;;5020974;28;20866;-70
2021/08/04 05:26:23;;;;;;;6.25;3.28;;;;;;;;;;5017621;28;20501;-74
2021/08/04 05:28:51;;;;;;;5.07;3.00;;;;;;;;;;5028513;28;20072;-68
2021/08/04 05:31:18;;;;;;;5.90;2.90;;;;;;;;;;5024053;28;20038;-68
2021/08/04 05:33:44;;;;;;;6.70;3.40;;;;;;;;;;5021212;28;20042;-68
2021/08/04 05:36:10;;;;;;;4.45;2.65;;;;;;;;;;5019754;28;20497;-68
2021/08/04 05:38:37;;;;;;;4.90;2.75;;;;;;;;;;5028195;28;20069;-68
2021/08/04 05:41:03;;;;;;;4.97;2.92;;;;;;;;;;5027569;28;20433;-68
2021/08/04 05:43:31;;;;;;;6.20;3.00;;;;;;;;;;5023954;28;20135;-68
2021/08/04 05:45:57;;;;;;;6.30;2.60;;;;;;;;;;5026129;28;20049;-68
2021/08/04 05:48:23;;;;;;;4.25;2.50;;;;;;;;;;5021799;28;20128;-69
2021/08/04 05:50:50;;;;;;;5.50;2.88;;;;;;;;;;5028872;28;20045;-68
2021/08/04 05:53:16;;;;;;;5.13;2.70;;;;;;;;;;5016988;28;20057;-69
2021/08/04 05:55:43;;;;;;;5.03;2.45;;;;;;;;;;5026550;28;20034;-69
2021/08/04 05:58:09;;;;;;;7.00;3.08;;;;;;;;;;5021551;28;20057;-70
2021/08/04 06:00:35;;;;;;;6.00;2.55;;;;;;;;;;5021713;28;20470;-70
2021/08/04 06:03:03;;;;;;;5.53;2.53;;;;;;;;;;5028525;28;20052;-69
2021/08/04 06:05:40;;;;;;;5.50;2.42;;;;;;;;;;5023918;28;20053;-69
2021/08/04 06:08:07;;;;;;;4.10;2.50;;;;;;;;;;5023628;28;20139;-69
2021/08/04 06:10:35;;;;;;;4.97;2.38;;;;;;;;;;5021304;28;20072;-69
2021/08/04 06:13:02;;;;;;;8.10;2.58;;;;;;;;;;5027256;28;20072;-70
2021/08/04 06:15:28;;;;;;;5.75;2.45;;;;;;;;;;5025277;28;20480;-70
2021/08/04 06:17:54;;;;;;;6.45;2.15;;;;;;;;;;5025176;28;20049;-70
2021/08/04 06:20:20;;;;;;;4.72;2.38;;;;;;;;;;5025237;28;20045;-70
2021/08/04 06:22:47;;;;;;;4.63;2.20;;;;;;;;;;5021514;28;20482;-70
2021/08/04 06:25:13;;;;;;;3.35;1.90;;;;;;;;;;5020662;28;20612;-70
2021/08/04 06:27:39;;;;;;;4.63;2.30;;;;;;;;;;5026406;28;20136;-72
2021/08/04 06:30:06;;;;;;;5.13;1.65;;;;;;;;;;5016145;28;20482;-69
2021/08/04 06:32:34;;;;;;;3.08;1.80;;;;;;;;;;5015274;28;20236;-69
2021/08/04 06:35:04;;;;;;;3.15;1.58;;;;;;;;;;5016456;28;20203;-69
2021/08/04 06:37:37;;;;;;;3.58;1.85;;;;;;;;;;5020001;28;20412;-69
2021/08/04 06:40:04;;;;;;;3.20;1.80;;;;;;;;;;5023813;28;20033;-69
2021/08/04 06:42:40;;;;;;;7.70;1.95;;;;;;;;;;5023504;28;20106;-69
2021/08/04 06:45:06;;;;;;;4.32;1.60;;;;;;;;;;5024528;28;20038;-69
2021/08/04 06:47:32;;;;;;;3.00;1.40;;;;;;;;;;5023943;28;20064;-69
2021/08/04 06:49:59;;;;;;;4.82;1.50;;;;;;;;;;5018806;28;20042;-69
2021/08/04 06:52:25;;;;;;;3.10;1.30;;;;;;;;;;5019784;28;20180;-69
2021/08/04 06:54:52;;;;;;;3.38;1.20;;;;;;;;;;5014230;28;20049;-69
2021/08/04 06:57:18;;;;;;;5.63;1.30;;;;;;;;;;5018063;28;20038;-69
2021/08/04 06:59:45;;;;;;;3.22;1.30;;;;;;;;;;5021739;28;20076;-69
2021/08/04 07:02:11;;;;;;;3.10;1.10;;;;;;;;;;5016543;28;20050;-69
2021/08/04 07:04:37;;;;;;;3.40;1.17;;;;;;;;;;5011941;28;20881;-69
2021/08/04 07:07:04;;;;;;;5.75;1.25;;;;;;;;;;5016635;28;20045;-69
2021/08/04 07:09:34;;;;;;;2.50;1.00;;;;;;;;;;5022281;28;20440;-69
2021/08/04 07:12:00;;;;;;;1.98;1.00;;;;;;;;;;5025829;28;20117;-69
2021/08/04 07:14:26;;;;;;;4.65;1.20;;;;;;;;;;5020256;28;20054;-69
2021/08/04 07:16:53;;;;;;;2.35;1.20;;;;;;;;;;5018964;28;20037;-69
2021/08/04 07:19:19;;;;;;;6.55;1.88;;;;;;;;;;5017511;28;20042;-69
2021/08/04 07:21:45;;;;;;;2.67;0.95;;;;;;;;;;5027724;28;20054;-69
2021/08/04 07:24:12;;;;;;;2.42;1.33;;;;;;;;;;5020585;28;20054;-69
2021/08/04 07:26:40;;;;;;;2.17;0.93;;;;;;;;;;5019946;28;20064;-69
2021/08/04 07:29:06;;;;;;;4.18;1.02;;;;;;;;;;5025533;28;20133;-69
2021/08/04 07:31:33;;;;;;;3.63;1.27;;;;;;;;;;5018856;28;20041;-69
2021/08/04 07:34:00;;;;;;;2.00;0.88;;;;;;;;;;5013817;28;20140;-69
2021/08/04 07:36:26;;;;;;;4.90;1.20;;;;;;;;;;5020071;28;20228;-69
2021/08/04 07:38:52;;;;;;;3.60;1.50;;;;;;;;;;5021541;28;20140;-64
2021/08/04 07:41:18;;;;;;;2.75;1.13;;;;;;;;;;5025100;28;20042;-64
2021/08/04 07:43:45;;;;;;;3.92;1.20;;;;;;;;;;5025030;28;20088;-66
2021/08/04 07:46:12;;;;;;;2.28;1.15;;;;;;;;;;5022438;28;20073;-67
2021/08/04 07:48:38;;;;;;;2.92;0.95;;;;;;;;;;5025107;28;20049;-66
2021/08/04 07:51:05;;;;;;;4.82;1.52;;;;;;;;;;5025311;28;20060;-66
2021/08/04 07:53:31;;;;;;;7.90;3.30;;;;;;;;;;5025718;28;20045;-66
2021/08/04 07:55:58;;;;;;;8.73;5.47;;;;;;;;;;5020960;28;20112;-66
2021/08/04 07:58:25;;;;;;;2.58;0.77;;;;;;;;;;5025429;28;20075;-66
2021/08/04 08:00:51;;;;;;;1.52;0.70;;;;;;;;;;5022720;28;20084;-66
2021/08/04 08:03:17;;;;;;;4.22;1.02;;;;;;;;;;5023784;28;20053;-67
2021/08/04 08:05:43;;;;;;;3.78;1.60;;;;;;;;;;5020951;28;20125;-66
2021/08/04 08:08:10;;;;;;;5.72;2.90;;;;;;;;;;5018908;28;20033;-66
2021/08/04 08:10:37;;;;;;;7.07;3.80;;;;;;;;;;5018497;28;20438;-66
2021/08/04 08:13:05;;;;;;;2.83;0.82;;;;;;;;;;5019195;28;20095;-66
2021/08/04 08:15:31;;;;;;;2.00;0.80;;;;;;;;;;5020124;28;20159;-66
2021/08/04 08:17:57;;;;;;;1.65;0.80;;;;;;;;;;5024045;28;20061;-66
2021/08/04 08:20:24;;;;;;;2.30;1.00;;;;;;;;;;5021152;28;20053;-66
2021/08/04 08:22:51;;;;;;;3.30;1.15;;;;;;;;;;5021221;28;20060;-66
2021/08/04 08:25:18;;;;;;;3.65;1.20;;;;;;;;;;5019547;28;20140;-66
2021/08/04 08:27:45;;;;;;;2.28;0.95;;;;;;;;;;5024888;28;20058;-66
2021/08/04 08:30:12;;;;;;;4.40;1.00;;;;;;;;;;5023742;28;20041;-66
2021/08/04 08:32:39;;;;;;;3.72;1.15;;;;;;;;;;5024303;28;20473;-66
2021/08/04 08:35:06;;;;;;;2.67;1.10;;;;;;;;;;5021916;28;20103;-67
2021/08/04 08:37:33;;;;;;;2.42;1.17;;;;;;;;;;5018025;28;20054;-84
2021/08/04 08:39:59;;;;;;;1.65;0.75;;;;;;;;;;5027948;28;20136;-85
2021/08/04 08:42:25;;;;;;;3.83;1.40;;;;;;;;;;5016666;28;20041;-88
2021/08/04 08:44:51;;;;;;;1.73;0.95;;;;;;;;;;5023701;28;20124;-88
2021/08/04 08:47:18;;;;;;;2.83;1.27;;;;;;;;;;5025874;28;20053;-87
2021/08/04 08:49:46;;;;;;;2.33;1.10;;;;;;;;;;5025180;28;20051;-87
2021/08/04 08:52:13;;;;;;;2.63;1.05;;;;;;;;;;5025330;28;20469;-88
2021/08/04 08:54:39;;;;;;;3.53;1.33;;;;;;;;;;5024996;28;20129;-88
2021/08/04 08:57:05;;;;;;;2.78;1.00;;;;;;;;;;5025840;28;20041;-88
2021/08/04 08:59:31;;;;;;;2.58;1.17;;;;;;;;;;5025702;28;20385;-88
2021/08/04 09:01:58;;;;;;;2.13;0.90;;;;;;;;;;5026299;28;20053;-87
2021/08/04 09:04:25;;;;;;;3.92;1.55;;;;;;;;;;5016122;28;20089;-87
2021/08/04 09:06:55;;;;;;;2.50;1.10;;;;;;;;;;5023615;28;20416;-88
2021/08/04 09:09:25;;;;;;;2.92;1.23;;;;;;;;;;5023012;28;20111;-88
2021/08/04 09:11:55;;;;;;;3.40;1.20;;;;;;;;;;5026612;28;20037;-88
2021/08/04 09:14:25;;;;;;;1.60;0.80;;;;;;;;;;5022341;28;20056;-88
2021/08/04 09:16:59;;;;;;;2.72;0.98;;;;;;;;;;5025226;28;20504;-88
2021/08/04 09:19:25;;;;;;;;;;;;;;;;;;5019857;28;20038;-87
2021/08/04 09:22:10;;;;;;;2.25;1.00;;;;;;;;;;5021256;28;19928;-87
2021/08/04 09:24:54;;;;;;;2.70;0.95;;;;;;;;;;5017649;28;20034;-88
2021/08/04 09:27:21;;;;;;;3.83;1.10;;;;;;;;;;5024127;28;20045;-89
2021/08/04 09:29:58;;;;;;;8.30;1.10;;;;;;;;;;5022851;28;20049;-88
2021/08/04 09:32:26;;;;;;;2.28;0.93;;;;;;;;;;5023604;28;20482;-91
2021/08/04 09:34:53;;;;;;;9.50;1.42;;;;;;;;;;5023973;28;20416;-87
2021/08/04 09:37:21;;;;;;;2.28;1.00;;;;;;;;;;5025411;28;20060;-87
2021/08/04 09:39:54;;;;;;;2.97;1.30;;;;;;;;;;5022574;28;20053;-88
2021/08/04 09:42:21;;;;;;;3.08;1.00;;;;;;;;;;5024711;28;20041;-87
2021/08/04 09:44:53;;;;;;;1.98;0.95;;;;;;;;;;5017610;28;20120;-87
2021/08/04 09:47:19;;;;;;;3.55;1.00;;;;;;;;;;5018274;28;20045;-87
2021/08/04 09:49:57;;;;;;;2.47;0.80;;;;;;;;;;5021920;28;20045;-89
2021/08/04 09:52:23;;;;;;;3.15;1.05;;;;;;;;;;5017155;28;20049;-87
2021/08/04 09:54:50;;;;;;;2.60;0.90;;;;;;;;;;5022958;28;20107;-87
2021/08/04 09:57:16;;;;;;;1.60;0.77;;;;;;;;;;5023020;28;20076;-86
2021/08/04 10:00:02;;;;;;;3.08;0.90;;;;;;;;;;5017820;28;20041;-86
2021/08/04 10:02:29;;;;;;;2.13;0.70;;;;;;;;;;5022441;28;20042;-86
2021/08/04 10:05:16;;;;;;;3.33;1.08;;;;;;;;;;5021067;28;20717;-87
2021/08/04 10:08:01;;;;;;;5.15;0.80;;;;;;;;;;5020519;28;20061;-86
2021/08/04 10:10:27;;;;;;;3.50;0.90;;;;;;;;;;5022268;28;20174;-86
2021/08/04 10:12:55;;;;;;;3.35;0.95;;;;;;;;;;5024317;28;20038;-87
2021/08/04 10:15:21;;;;;;;2.53;1.00;;;;;;;;;;5021653;28;20201;-87
2021/08/04 10:17:48;;;;;;;2.38;1.00;;;;;;;;;;5020892;28;20117;-87
2021/08/04 10:20:15;;;;;;;4.20;1.40;;;;;;;;;;5026810;28;20453;-87
2021/08/04 10:22:42;;;;;;;3.05;1.27;;;;;;;;;;5014807;28;20058;-88
2021/08/04 10:25:08;;;;;;;2.25;0.93;;;;;;;;;;5021550;28;20124;-87
2021/08/04 10:27:35;;;;;;;2.22;0.93;;;;;;;;;;5023581;28;20176;-87
2021/08/04 10:30:02;;;;;;;3.72;1.13;;;;;;;;;;5023343;28;20041;-87
2021/08/04 10:32:29;;;;;;;3.53;1.35;;;;;;;;;;5026118;28;20096;-87
2021/08/04 10:34:57;;;;;;;3.92;1.30;;;;;;;;;;5022431;28;20049;-87
2021/08/04 10:37:25;;;;;;;1.95;1.00;;;;;;;;;;5021131;28;20386;-87
2021/08/04 10:39:52;;;;;;;2.35;0.88;;;;;;;;;;5026640;28;20044;-87
2021/08/04 10:42:20;;;;;;;2.45;1.00;;;;;;;;;;5025301;28;20064;-87
2021/08/04 10:44:46;;;;;;;2.22;0.82;;;;;;;;;;5024802;28;20046;-87
2021/08/04 10:47:26;;;;;;;2.47;1.13;;;;;;;;;;5022969;28;20041;-87
2021/08/04 10:50:08;;;;;;;2.30;0.70;;;;;;;;;;5024473;28;20061;-87
2021/08/04 10:52:34;;;;;;;3.53;0.88;;;;;;;;;;5025934;28;20405;-88
2021/08/04 10:55:03;;;;;;;2.28;0.95;;;;;;;;;;5019011;28;20473;-87
2021/08/04 10:57:34;;;;;;;2.25;0.90;;;;;;;;;;5026671;28;20052;-87
2021/08/04 11:00:21;;;;;;;1.70;0.75;;;;;;;;;;5026433;28;20041;-87
2021/08/04 11:02:47;;;;;;;2.80;1.00;;;;;;;;;;5019064;28;20556;-88
2021/08/04 11:05:13;;;;;;;2.20;0.88;;;;;;;;;;5023402;28;20045;-89
2021/08/04 11:08:00;;;;;;;2.83;0.95;;;;;;;;;;5023494;28;20050;-89
2021/08/04 11:10:37;;;;;;;3.35;1.20;;;;;;;;;;5022411;28;20037;-88
2021/08/04 11:13:04;;;;;;;3.25;1.20;;;;;;;;;;5022356;28;20142;-88
2021/08/04 11:15:31;;;;;;;3.47;1.15;;;;;;;;;;5024193;28;20063;-88
2021/08/04 11:18:06;;;;;;;4.25;1.13;;;;;;;;;;5028795;28;20049;-87
2021/08/04 11:20:33;;;;;;;3.13;1.02;;;;;;;;;;5028896;28;20045;-87
2021/08/04 11:22:59;;;;;;;4.53;1.00;;;;;;;;;;5022147;28;20046;-88
2021/08/04 11:25:31;;;;;;;3.78;1.00;;;;;;;;;;5025025;28;20045;-88
2021/08/04 11:27:58;;;;;;;2.53;0.98;;;;;;;;;;5019709;28;20046;-88
2021/08/04 11:30:28;;;;;;;3.00;1.10;;;;;;;;;;5025246;28;20063;-88
2021/08/04 11:33:13;;;;;;;2.15;0.98;;;;;;;;;;5024716;28;20042;-88
2021/08/04 11:35:39;;;;;;;2.47;0.93;;;;;;;;;;5028961;28;20080;-88
2021/08/04 11:38:05;;;;;;;5.57;1.10;;;;;;;;;;5020513;28;20042;-87
2021/08/04 11:40:31;;;;;;;2.60;1.10;;;;;;;;;;5028848;28;20037;-88
2021/08/04 11:42:58;;;;;;;3.00;1.00;;;;;;;;;;5023946;28;20057;-88
2021/08/04 11:45:24;;;;;;;3.65;1.10;;;;;;;;;;5020509;28;20038;-89
2021/08/04 11:47:51;;;;;;;3.92;1.02;;;;;;;;;;5023187;28;20447;-88
2021/08/04 11:50:17;;;;;;;3.63;1.00;;;;;;;;;;5026331;28;20053;-87
2021/08/04 11:52:43;;;;;;;3.67;1.00;;;;;;;;;;5023528;28;20053;-87
2021/08/04 11:55:11;;;;;;;2.67;1.10;;;;;;;;;;5023018;28;20044;-88
2021/08/04 11:57:43;;;;;;;3.55;1.08;;;;;;;;;;5025545;28;21661;-87
2021/08/04 12:00:12;;;;;;;4.47;1.00;;;;;;;;;;5022997;28;20134;-88
2021/08/04 12:02:39;;;;;;;2.05;0.75;;;;;;;;;;5019908;28;20481;-87
2021/08/04 12:05:06;;;;;;;2.42;1.10;;;;;;;;;;5024005;28;20049;-88
2021/08/04 12:07:34;;;;;;;3.05;1.17;;;;;;;;;;5021151;28;20045;-88
2021/08/04 12:10:01;;;;;;;8.70;1.65;;;;;;;;;;5023722;28;20045;-89
2021/08/04 12:12:31;;;;;;;3.08;1.20;;;;;;;;;;5023600;28;20053;-87
2021/08/04 12:14:58;;;;;;;2.72;1.00;;;;;;;;;;5023255;28;20103;-87
2021/08/04 12:17:28;;;;;;;1.80;0.90;;;;;;;;;;5022988;28;20162;-87
2021/08/04 12:19:55;;;;;;;2.80;0.90;;;;;;;;;;5022507;28;20049;-88
2021/08/04 12:22:22;;;;;;;3.10;1.00;;;;;;;;;;5022147;28;20041;-87
2021/08/04 12:24:51;;;;;;;5.68;1.52;;;;;;;;;;5021477;28;20051;-88
2021/08/04 12:27:38;;;;;;;2.70;1.00;;;;;;;;;;5021323;28;20072;-89
2021/08/04 12:30:07;;;;;;;4.47;1.00;;;;;;;;;;5021593;28;20042;-88
2021/08/04 12:32:34;;;;;;;3.83;0.90;;;;;;;;;;5013913;28;20046;-87
2021/08/04 12:35:02;;;;;;;3.17;1.02;;;;;;;;;;5025398;28;20064;-88
2021/08/04 12:37:31;;;;;;;3.85;1.60;;;;;;;;;;5020141;28;20049;-87
2021/08/04 12:40:09;;;;;;;2.17;1.10;;;;;;;;;;5026270;28;20103;-84
2021/08/04 12:42:36;;;;;;;4.38;1.10;;;;;;;;;;5022375;28;20128;-84
2021/08/04 12:45:19;;;;;;;2.25;1.00;;;;;;;;;;5019531;28;20041;-85
2021/08/04 12:47:45;;;;;;;;;;;;;;;;;;5022820;28;20133;-84
2021/08/04 12:50:11;;;;;;;2.42;0.95;;;;;;;;;;5018530;28;20403;-84
2021/08/04 12:52:38;;;;;;;3.22;1.13;;;;;;;;;;5020012;28;20050;-84
2021/08/04 12:55:16;;;;;;;8.38;1.70;;;;;;;;;;5025514;28;20041;-84
2021/08/04 12:57:42;;;;;;;3.45;1.50;;;;;;;;;;5026755;28;20168;-85
2021/08/04 13:00:09;;;;;;;3.95;1.33;;;;;;;;;;5021607;28;20049;-85
2021/08/04 13:02:39;;;;;;;4.30;1.60;;;;;;;;;;5021372;28;20046;-84
2021/08/04 13:05:06;;;;;;;6.55;1.00;;;;;;;;;;5021582;28;20048;-85
2021/08/04 13:07:42;;;;;;;2.95;1.30;;;;;;;;;;5020872;28;20140;-85
2021/08/04 13:10:09;;;;;;;2.83;1.30;;;;;;;;;;5021016;28;20235;-85
2021/08/04 13:12:36;;;;;;;4.30;1.40;;;;;;;;;;5024000;28;20041;-85
2021/08/04 13:15:05;;;;;;;3.42;1.33;;;;;;;;;;5022095;28;20049;-85
2021/08/04 13:17:32;;;;;;;3.55;1.77;;;;;;;;;;5018782;28;20042;-85
2021/08/04 13:20:05;;;;;;;6.75;1.75;;;;;;;;;;5020815;28;20054;-85
2021/08/04 13:22:51;;;;;;;4.72;1.50;;;;;;;;;;5020680;28;20033;-84
2021/08/04 13:25:18;;;;;;;5.68;1.80;;;;;;;;;;5022070;28;20535;-85
2021/08/04 13:27:54;;;;;;;4.20;1.35;;;;;;;;;;5016168;28;20094;-85
2021/08/04 13:30:22;;;;;;;3.72;1.73;;;;;;;;;;5027246;28;20049;-85
2021/08/04 13:32:48;;;;;;;4.03;1.30;;;;;;;;;;5022846;28;20045;-84
2021/08/04 13:35:14;;;;;;;4.85;1.50;;;;;;;;;;5018109;28;20512;-85
2021/08/04 13:37:41;;;;;;;7.50;1.40;;;;;;;;;;5020741;28;20551;-84
2021/08/04 13:40:08;;;;;;;3.13;1.30;;;;;;;;;;5022642;28;20249;-85
2021/08/04 13:42:34;;;;;;;4.72;1.63;;;;;;;;;;5026073;28;20507;-84
2021/08/04 13:45:01;;;;;;;5.20;1.48;;;;;;;;;;5020459;28;20049;-85
2021/08/04 13:47:27;;;;;;;4.03;1.63;;;;;;;;;;5021946;28;20053;-84
2021/08/04 13:50:01;;;;;;;5.93;2.17;;;;;;;;;;5018367;28;20034;-84
2021/08/04 13:52:27;;;;;;;5.68;2.55;;;;;;;;;;5020376;28;20049;-84
2021/08/04 13:54:53;;;;;;;5.00;2.85;;;;;;;;;;5019112;28;20048;-86
2021/08/04 13:57:19;;;;;;;5.68;2.38;;;;;;;;;;5018471;28;20041;-84
2021/08/04 13:59:45;;;;;;;3.90;2.10;;;;;;;;;;5019505;28;20045;-84
2021/08/04 14:02:12;;;;;;;3.90;2.28;;;;;;;;;;5016895;28;20053;-84
2021/08/04 14:04:40;;;;;;;4.63;1.90;;;;;;;;;;5024122;28;20045;-84
2021/08/04 14:07:07;;;;;;;5.30;1.92;;;;;;;;;;5020576;28;20470;-84
2021/08/04 14:09:33;;;;;;;6.18;1.73;;;;;;;;;;5026247;28;20049;-85
2021/08/04 14:11:59;;;;;;;3.42;1.48;;;;;;;;;;5021569;28;20041;-85
2021/08/04 14:14:25;;;;;;;4.95;1.73;;;;;;;;;;5023304;28;20044;-84
2021/08/04 14:16:52;;;;;;;4.07;1.80;;;;;;;;;;5022549;28;20041;-84
2021/08/04 14:19:18;;;;;;;3.75;1.83;;;;;;;;;;5020275;28;20057;-84
2021/08/04 14:21:45;;;;;;;3.33;1.67;;;;;;;;;;5020857;28;20045;-84
2021/08/04 14:24:11;;;;;;;3.40;1.50;;;;;;;;;;5019261;28;20057;-85
2021/08/04 14:26:37;;;;;;;3.78;1.75;;;;;;;;;;5018301;28;20046;-85
2021/08/04 14:29:04;;;;;;;3.20;1.38;;;;;;;;;;5020469;28;20076;-85
2021/08/04 14:31:30;;;;;;;3.22;1.45;;;;;;;;;;5021597;28;20049;-84
2021/08/04 14:33:57;;;;;;;3.90;1.40;;;;;;;;;;5020962;28;20049;-84
2021/08/04 14:36:24;;;;;;;3.33;1.40;;;;;;;;;;5036228;28;20057;-84
2021/08/04 14:38:50;;;;;;;2.53;1.30;;;;;;;;;;5025959;28;20037;-84
2021/08/04 14:41:16;;;;;;;2.97;1.30;;;;;;;;;;5019297;28;20088;-84
2021/08/04 14:43:42;;;;;;;5.28;1.30;;;;;;;;;;5024521;28;20045;-84
2021/08/04 14:46:09;;;;;;;2.80;1.40;;;;;;;;;;5022620;28;20044;-84